Juist Airport

EDWJ · Lower Saxony, Germany

METAR history EDWJ · Juist Airport

Below you see METARs of the last few days. Select a year to browse through older METARs, from the year 2007 onwards.

December 7, 2022

Time Code Weather Temp. Visibility Ceiling Wind METAR/SPECI
23:20
V
3 °C 10 km+ 5,300 ft 250° 250° 10 kt SPECI EDWE 072220Z AUTO 25010KT 9999 // BKN053/// BKN140/// 03/01 Q1008

December 8, 2022

Time Code Weather Temp. Visibility Ceiling Wind METAR/SPECI
00:20
M
2 °C 10 km+ 2,400 ft 240° 240° 9 kt METAR EDWE 072320Z AUTO 24009KT 9999 // FEW010/// BKN024/// OVC062/// 02/01 Q1007

December 7, 2022

Time Code Weather Temp. Visibility Ceiling Wind METAR/SPECI
23:50
V
3 °C 10 km+ 3,800 ft 250° 250° 8 kt METAR EDWE 072250Z AUTO 25008KT 9999 // FEW013/// SCT018/// OVC038/// 03/01 Q1008
23:20
V
3 °C 10 km+ 5,300 ft 250° 250° 10 kt METAR EDWE 072220Z AUTO 25010KT 9999 // BKN053/// BKN140/// 03/01 Q1008
22:50
V
3 °C 10 km+ 14,000 ft 240° 240° 11 kt METAR EDWE 072150Z AUTO 24011KT 9999 // OVC140/// 03/01 Q1008
22:20
V
3 °C 10 km+ 14,000 ft 230° 230° 8 kt METAR EDWE 072120Z AUTO 23008KT 9999 // FEW024/// SCT082/// BKN140/// 03/01 Q1008
21:50
M
3 °C 10 km+ 2,600 ft 240° 240° 8 kt METAR EDWE 072050Z AUTO 24008KT 9999 // FEW017/// BKN026/// BKN081/// 03/01 Q1009
21:20
V
2 °C 10 km+ 14,000 ft 240° 240° 8 kt METAR EDWE 072020Z AUTO 24008KT 9999 // SCT020/// SCT033/// BKN140/// 02/01 Q1009
20:50
V
3 °C 10 km+ 3,600 ft 240° 240° 8 kt METAR EDWE 071950Z AUTO 24008KT 9999 // FEW012/// BKN036/// BKN110/// 03/02 Q1009
20:20
I
2 °C 10 km+ 800 ft 290° 290° 8 kt METAR EDWE 071920Z AUTO 29008KT 9999 // BKN008/// OVC016/// 02/01 Q1010
19:50
V
3 °C 10 km+ 10,000 ft 230° 230° 7 kt METAR EDWE 071850Z AUTO 23007KT 9999 // OVC100/// 03/01 Q1010
19:20
V
2 °C 10 km+ 14,000 ft 220° 220° 6 kt METAR EDWE 071820Z AUTO 22006KT 9999 // SCT087/// SCT100/// BKN140/// 02/01 Q1010
18:50
V
2 °C 10 km+ 10,000 ft 230° 230° 7 kt METAR EDWE 071750Z AUTO 23007KT 9999 // FEW040/// BKN100/// 02/01 Q1010
18:20
V
2 °C 10 km+ 3,500 ft 240° 240° 6 kt METAR EDWE 071720Z AUTO 24006KT 9999 // BKN035/// BKN048/// BKN110/// 02/01 Q1011
06:20
M
4 °C 10 km+ 2,900 ft 290° 290° 6 kt METAR EDWE 070520Z AUTO 29006KT 9999 // BKN029/// BKN070/// BKN081/// 04/02 Q1013
05:50
V
3 °C 10 km+ 3,800 ft 300° 300° 6 kt METAR EDWE 070450Z AUTO 30006KT 9999 // SCT025/// BKN038/// 03/02 Q1013
05:20
M
4 °C 8 km 1,700 ft 340° 340° 12 kt METAR EDWE 070420Z AUTO 34012KT 8000 // BKN017/// OVC027/// 04/02 Q1014
04:50
V
3 °C 10 km+ - 270° 270° 6 kt METAR EDWE 070350Z AUTO 27006KT 9999 // FEW032/// 03/01 Q1013
04:20
V
4 °C 10 km+ 8,700 ft 300° 300° 6 kt METAR EDWE 070320Z AUTO 30006KT 9999 // FEW046/// BKN087/// 04/02 Q1013
03:50
M
4 °C 9 km 2,500 ft 300° 300° 8 kt METAR EDWE 070250Z AUTO 30008KT 9000 // BKN025/// BKN078/// 04/02 Q1014
03:20
V
3 °C 10 km+ 8,200 ft 290° 290° 5 kt METAR EDWE 070220Z AUTO 29005KT 9999 // FEW027/// BKN082/// 03/01 Q1014
02:50
V
4 °C 10 km+ - 290° 290° 5 kt METAR EDWE 070150Z AUTO 29005KT 9999 // FEW035/// SCT045/// 04/02 Q1014
02:20
V
4 °C 10 km+ 6,100 ft 300° 300° 6 kt METAR EDWE 070120Z AUTO 30006KT 9999 // FEW023/// SCT041/// BKN061/// 04/02 Q1014
01:50
V
3 °C 10 km+ - 280° 280° 7 kt METAR EDWE 070050Z AUTO 28007KT 9999 // SCT038/// 03/01 Q1014
01:20
V
2 °C 10 km+ - 260° 260° 6 kt METAR EDWE 070020Z AUTO 26006KT 9999 // FEW039/// 02/01 Q1014
00:50
V
2 °C 10 km+ - 260° 260° 6 kt METAR EDWE 062350Z AUTO 26006KT 230V010 9999 // FEW041/// 02/01 Q1014
00:20
V
3 °C 10 km+ 7,100 ft 250° 250° 6 kt METAR EDWE 062320Z AUTO 25006KT 9999 // FEW039/// SCT050/// BKN071/// 03/02 Q1014

December 6, 2022

Time Code Weather Temp. Visibility Ceiling Wind METAR/SPECI
23:50
V
3 °C 10 km+ - 260° 260° 5 kt METAR EDWE 062250Z AUTO 26005KT 9999 // FEW043/// 03/02 Q1014
23:20
V
3 °C 10 km+ - 250° 250° 6 kt METAR EDWE 062220Z AUTO 25006KT 9999 // SCT031/// 03/01 Q1014
22:50
V
3 °C 10 km+ - 280° 280° 6 kt METAR EDWE 062150Z AUTO 28006KT 260V350 9999 // FEW024/// SCT051/// 03/02 Q1015
22:20
V
4 °C 10 km+ 7,800 ft 250° 250° 5 kt METAR EDWE 062120Z AUTO 25005KT 9999 // FEW038/// SCT049/// BKN078/// 04/03 Q1014
21:50
V
4 °C 8 km 7,400 ft 250° 250° 7 kt METAR EDWE 062050Z AUTO 25007KT 8000 // FEW002/// OVC074/// 04/04 Q1015
21:20
L
4 °C 1.3 km - 260° 260° 8 kt METAR EDWE 062020Z AUTO 26008KT 1300 R25/P2000N // VV/// 04/04 Q1015
20:50
M
5 °C 6 km 3,500 ft 250° 250° 9 kt METAR EDWE 061950Z AUTO 25009KT 6000 // SCT002/// BKN035/// BKN051/// 05/04 Q1015
20:20
L
5 °C 3.9 km 200 ft 270° 270° 9 kt METAR EDWE 061920Z AUTO 27009KT 3900 // BKN002/// OVC034/// 05/04 Q1015
19:50
M
5 °C 6 km 3,700 ft 240° 240° 6 kt METAR EDWE 061850Z AUTO 24006KT 6000 // FEW003/// BKN037/// BKN059/// 05/04 Q1015
19:20
I
4 °C 3.7 km 7,000 ft 250° 250° 6 kt METAR EDWE 061820Z AUTO 25006KT 3700 // SCT039/// BKN070/// BKN130/// 04/03 Q1015
18:50
L
3 °C 1.4 km - 250° 250° 6 kt METAR EDWE 061750Z AUTO 25006KT 1400 R25/1800U // FEW140/// 03/03 Q1015
18:20
I
3 °C 4 km - 240° 240° 6 kt METAR EDWE 061720Z AUTO 24006KT 4000 // FEW180/// 03/03 Q1015
06:20
M
4 °C 7 km 1,600 ft 330° 330° 3 kt METAR EDWE 060520Z AUTO 33003KT 7000 // BKN016/// OVC029/// 04/03 Q1018
05:50
M
4 °C 10 km+ 1,900 ft 330° 330° 3 kt METAR EDWE 060450Z AUTO 33003KT 9999 // BKN019/// BKN040/// OVC062/// 04/03 Q1018
05:20
V
4 °C 10 km+ 3,700 ft 360° 360° 5 kt METAR EDWE 060420Z AUTO 36005KT 9999 // FEW014/// SCT017/// OVC037/// 04/03 Q1018
04:50
V
4 °C 10 km+ 3,400 ft 330° 330° 5 kt METAR EDWE 060350Z AUTO 33005KT 300V360 9999 // FEW016/// SCT023/// OVC034/// 04/03 Q1019
04:20
V
4 °C 10 km+ 6,500 ft 320° 320° 3 kt METAR EDWE 060320Z AUTO 32003KT 9999 // SCT015/// SCT019/// OVC065/// 04/03 Q1019
03:50
M
4 °C 10 km+ 1,600 ft 360° 360° 3 kt METAR EDWE 060250Z AUTO 36003KT 9999 // OVC016/// 04/04 Q1019
03:20
M
4 °C 8 km 1,600 ft 360° 360° 4 kt METAR EDWE 060220Z AUTO 36004KT 8000 // SCT013/// BKN016/// OVC026/// 04/04 Q1019
02:50
M
5 °C 6 km 1,600 ft 360° 360° 5 kt METAR EDWE 060150Z AUTO 36005KT 6000 // FEW013/// BKN016/// OVC025/// 05/04 Q1019
02:20
M
5 °C 10 km+ 2,100 ft 360° 360° 5 kt METAR EDWE 060120Z AUTO 36005KT 9999 // FEW016/// BKN021/// OVC030/// 05/03 Q1019
01:50
M
5 °C 10 km+ 2,100 ft 350° 350° 6 kt METAR EDWE 060050Z AUTO 35006KT 9999 // FEW014/// OVC021/// 05/04 Q1019
01:20
M
5 °C 10 km+ 2,000 ft 350° 350° 5 kt METAR EDWE 060020Z AUTO 35005KT 9999 // OVC020/// 05/04 Q1019
00:50
M
5 °C 10 km+ 2,200 ft 350° 350° 5 kt METAR EDWE 052350Z AUTO 35005KT 9999 // OVC022/// 05/04 Q1019
00:20
M
5 °C 10 km+ 1,800 ft 360° 360° 7 kt METAR EDWE 052320Z AUTO 36007KT 9999 // OVC018/// 05/04 Q1019

December 5, 2022

Time Code Weather Temp. Visibility Ceiling Wind METAR/SPECI
23:50
M
5 °C 10 km+ 1,500 ft 350° 350° 7 kt METAR EDWE 052250Z AUTO 35007KT 9999 // OVC015/// 05/04 Q1020
23:20
M
5 °C 10 km+ 1,400 ft 360° 360° 7 kt METAR EDWE 052220Z AUTO 36007KT 9999 // OVC014/// 05/04 Q1020
22:50
M
5 °C 10 km+ 1,300 ft 360° 360° 7 kt METAR EDWE 052150Z AUTO 36007KT 9999 // OVC013/// 05/04 Q1020
22:20
I
5 °C 10 km+ 900 ft 350° 350° 5 kt METAR EDWE 052120Z AUTO 35005KT 9999 // OVC009/// 05/04 Q1020
21:50
M
5 °C 10 km+ 1,000 ft 020° 020° 6 kt METAR EDWE 052050Z AUTO 02006KT 9999 // BKN010/// OVC012/// 05/04 Q1020
21:20
I
5 °C 10 km+ 800 ft 020° 020° 7 kt METAR EDWE 052020Z AUTO 02007KT 9999 // BKN008/// OVC015/// 05/04 Q1020
20:50
I
5 °C 10 km+ 900 ft 020° 020° 7 kt METAR EDWE 051950Z AUTO 02007KT 9999 // SCT007/// OVC009/// 05/04 Q1020
20:20
I
5 °C 10 km+ 700 ft 020° 020° 6 kt METAR EDWE 051920Z AUTO 02006KT 9999 // BKN007/// OVC017/// 05/04 Q1020
19:50
I
5 °C 10 km+ 700 ft 030° 030° 6 kt METAR EDWE 051850Z AUTO 03006KT 9999 // OVC007/// 05/04 Q1020
19:20
M
5 °C 7 km 1,200 ft 030° 030° 7 kt METAR EDWE 051820Z AUTO 03007KT 7000 // SCT007/// OVC012/// 05/04 Q1020
18:50
I
5 °C 7 km 600 ft 030° 030° 8 kt METAR EDWE 051750Z AUTO 03008KT 7000 // BKN006/// OVC016/// 05/04 Q1019
18:20
I
5 °C 6 km 600 ft 030° 030° 9 kt METAR EDWE 051720Z AUTO 03009KT 6000 // BKN006/// OVC017/// 05/04 Q1019
12:20
I
5 °C 3.9 km 800 ft 030° 030° 11 kt METAR EDWE 051120Z 03011KT 3900 BR FEW005 BKN008 OVC010 05/04 Q1020
11:50
I
5 °C 5 km 600 ft 030° 030° 11 kt METAR EDWE 051050Z 03011KT 5000 -DZ BKN006 OVC008 05/04 Q1020
11:20
I
5 °C 5 km 800 ft 030° 030° 13 kt METAR EDWE 051020Z 03013KT 5000 -DZ BKN008 BKN010 OVC012 05/04 Q1020
10:50
I
5 °C 10 km+ 800 ft 040° 040° 12 kt METAR EDWE 050950Z 04012KT 9999 -DZ BKN008 OVC011 05/04 Q1020

We and third parties follow your internet behavior on our website with cookies. If you continue, we assume you agree with our cookie policy.